Oil Finn — OJ9326 — position and weather

sailwx.info

Track history (hours):
 
Tides and Currents Weather Stations Pressure Air Temp Water Temp Dewpoint Dewpoint Depression Visibility Wind Speed Wind Dir Waves Ship Positions

Oil Finn

Last reported at 2014-Dec-10 01:20 UTC. Time now 2014-Dec-18 23:49 UTC.
Position N 60°10' E 025°06'.
Warning: this ship's position is 8 days out of date.

Length 20 m; draft 2 m.

Type: Tanker. MMSI: 230033790.

Date/timePositionNaut miles runAvg speedWind from/ knotsBaromVisibWave heightAir tempDewpointWater temp
2014-Dec-10 01:20N 60°10' E 025°06'34 4.3
2014-Dec-09 17:32N 60°21' E 026°10'7 6.8
2014-Dec-09 16:33N 60°18' E 026°23'3 2.8
2014-Dec-09 15:33N 60°17' E 026°27'0 0.0
2014-Dec-09 14:33N 60°17' E 026°27'2 1.6
2014-Dec-09 13:33N 60°18' E 026°29'5 5.4
2014-Dec-09 12:33N 60°19' E 026°39'6 5.7
2014-Dec-09 11:33N 60°20' E 026°50'6 5.9
2014-Dec-09 10:33N 60°19' E 027°02'5 2.2
2014-Dec-09 08:27N 60°17' E 027°11'6 6.6
2014-Dec-09 07:33N 60°19' E 026°60'7 6.6
2014-Dec-09 06:34N 60°21' E 026°47'6 6.5
2014-Dec-09 05:33N 60°20' E 026°34'2 1.8
2014-Dec-09 04:30N 60°20' E 026°30'0 0.0
2014-Dec-09 03:33N 60°20' E 026°30'0 0.0
2014-Dec-09 02:27N 60°20' E 026°30'0 0.0
2014-Dec-09 01:33N 60°20' E 026°30'0 0.0
2014-Dec-09 00:33N 60°20' E 026°30'0 0.0
2014-Dec-08 23:32N 60°20' E 026°30'0 0.0
2014-Dec-08 22:32N 60°20' E 026°30'0 0.0
2014-Dec-08 21:33N 60°20' E 026°30'0 0.0
2014-Dec-08 20:33N 60°20' E 026°30'0 0.0
2014-Dec-08 19:33N 60°20' E 026°30'2 2.1
2014-Dec-08 18:34N 60°21' E 026°26'6 5.5
2014-Dec-08 17:28N 60°21' E 026°14'31 5.1
2014-Dec-08 11:22N 60°11' E 025°14'  
Track history (hours):
 
Tides and Currents Weather Stations Pressure Air Temp Water Temp Dewpoint Dewpoint Depression Visibility Wind Speed Wind Dir Waves Ship Positions

Oil Finn

Last reported at 2014-Dec-10 01:20 UTC. Time now 2014-Dec-18 23:49 UTC.
Position N 60°10' E 025°06'.
Warning: this ship's position is 8 days out of date.

Length 20 m; draft 2 m.

Type: Tanker. MMSI: 230033790.

Date/timePositionNaut miles runAvg speedWind from/ knotsBaromVisibWave heightAir tempDewpointWater temp
2014-Dec-10 01:20N 60°10' E 025°06'34 4.3
2014-Dec-09 17:32N 60°21' E 026°10'7 6.8
2014-Dec-09 16:33N 60°18' E 026°23'3 2.8
2014-Dec-09 15:33N 60°17' E 026°27'0 0.0
2014-Dec-09 14:33N 60°17' E 026°27'2 1.6
2014-Dec-09 13:33N 60°18' E 026°29'5 5.4
2014-Dec-09 12:33N 60°19' E 026°39'6 5.7
2014-Dec-09 11:33N 60°20' E 026°50'6 5.9
2014-Dec-09 10:33N 60°19' E 027°02'5 2.2
2014-Dec-09 08:27N 60°17' E 027°11'6 6.6
2014-Dec-09 07:33N 60°19' E 026°60'7 6.6
2014-Dec-09 06:34N 60°21' E 026°47'6 6.5
2014-Dec-09 05:33N 60°20' E 026°34'2 1.8
2014-Dec-09 04:30N 60°20' E 026°30'0 0.0
2014-Dec-09 03:33N 60°20' E 026°30'0 0.0
2014-Dec-09 02:27N 60°20' E 026°30'0 0.0
2014-Dec-09 01:33N 60°20' E 026°30'0 0.0
2014-Dec-09 00:33N 60°20' E 026°30'0 0.0
2014-Dec-08 23:32N 60°20' E 026°30'0 0.0
2014-Dec-08 22:32N 60°20' E 026°30'0 0.0
2014-Dec-08 21:33N 60°20' E 026°30'0 0.0
2014-Dec-08 20:33N 60°20' E 026°30'0 0.0
2014-Dec-08 19:33N 60°20' E 026°30'2 2.1
2014-Dec-08 18:34N 60°21' E 026°26'6 5.5
2014-Dec-08 17:28N 60°21' E 026°14'31 5.1
2014-Dec-08 11:22N 60°11' E 025°14'  

Dump ship's entire track history